sensor_id;sensor_type;location;lat;lon;timestamp;temperature;humidity
20714;DHT22;10518;50.742;4.226;2023-05-07T00:02:21;16.80;99.90
20714;DHT22;10518;50.742;4.226;2023-05-07T00:04:48;16.80;99.90
20714;DHT22;10518;50.742;4.226;2023-05-07T00:07:14;16.80;99.90
20714;DHT22;10518;50.742;4.226;2023-05-07T00:09:40;16.80;99.90
20714;DHT22;10518;50.742;4.226;2023-05-07T00:12:06;16.80;99.90
20714;DHT22;10518;50.742;4.226;2023-05-07T00:14:32;16.70;99.90
20714;DHT22;10518;50.742;4.226;2023-05-07T00:16:58;16.70;99.90
20714;DHT22;10518;50.742;4.226;2023-05-07T00:19:24;16.80;99.90
20714;DHT22;10518;50.742;4.226;2023-05-07T00:21:49;16.80;99.90
20714;DHT22;10518;50.742;4.226;2023-05-07T00:24:15;16.80;99.90
20714;DHT22;10518;50.742;4.226;2023-05-07T00:26:41;16.70;99.90
20714;DHT22;10518;50.742;4.226;2023-05-07T00:29:06;16.80;99.90
20714;DHT22;10518;50.742;4.226;2023-05-07T00:31:32;16.80;99.90
20714;DHT22;10518;50.742;4.226;2023-05-07T00:33:58;16.70;99.90
20714;DHT22;10518;50.742;4.226;2023-05-07T00:36:23;16.70;99.90
20714;DHT22;10518;50.742;4.226;2023-05-07T00:38:49;16.60;99.90
20714;DHT22;10518;50.742;4.226;2023-05-07T00:41:15;16.60;99.90
20714;DHT22;10518;50.742;4.226;2023-05-07T00:43:40;16.50;99.90
20714;DHT22;10518;50.742;4.226;2023-05-07T00:46:06;16.40;99.90
20714;DHT22;10518;50.742;4.226;2023-05-07T00:48:32;16.40;99.90
20714;DHT22;10518;50.742;4.226;2023-05-07T00:50:57;16.20;99.90
20714;DHT22;10518;50.742;4.226;2023-05-07T00:53:23;16.20;99.90
20714;DHT22;10518;50.742;4.226;2023-05-07T00:55:49;16.10;99.90
20714;DHT22;10518;50.742;4.226;2023-05-07T00:58:15;16.00;99.90
20714;DHT22;10518;50.742;4.226;2023-05-07T01:00:40;16.00;99.90
20714;DHT22;10518;50.742;4.226;2023-05-07T01:03:06;15.90;99.90
20714;DHT22;10518;50.742;4.226;2023-05-07T01:05:32;15.90;99.90
20714;DHT22;10518;50.742;4.226;2023-05-07T01:07:58;15.80;99.90
20714;DHT22;10518;50.742;4.226;2023-05-07T01:10:25;15.80;99.90
20714;DHT22;10518;50.742;4.226;2023-05-07T01:12:51;15.80;99.90
20714;DHT22;10518;50.742;4.226;2023-05-07T01:15:17;15.70;99.90
20714;DHT22;10518;50.742;4.226;2023-05-07T01:17:43;15.70;99.90
20714;DHT22;10518;50.742;4.226;2023-05-07T01:20:10;15.60;99.90
20714;DHT22;10518;50.742;4.226;2023-05-07T01:22:39;15.60;99.90
20714;DHT22;10518;50.742;4.226;2023-05-07T01:25:06;15.50;99.90
20714;DHT22;10518;50.742;4.226;2023-05-07T01:27:32;15.50;99.90
20714;DHT22;10518;50.742;4.226;2023-05-07T01:30:03;15.50;99.90
20714;DHT22;10518;50.742;4.226;2023-05-07T01:32:47;15.40;99.90
20714;DHT22;10518;50.742;4.226;2023-05-07T01:35:18;15.40;99.90
20714;DHT22;10518;50.742;4.226;2023-05-07T01:37:45;15.40;99.90
20714;DHT22;10518;50.742;4.226;2023-05-07T01:40:11;15.30;99.90
20714;DHT22;10518;50.742;4.226;2023-05-07T01:42:37;15.30;99.90
20714;DHT22;10518;50.742;4.226;2023-05-07T01:45:03;15.20;99.90
20714;DHT22;10518;50.742;4.226;2023-05-07T01:47:30;15.20;99.90
20714;DHT22;10518;50.742;4.226;2023-05-07T01:49:56;15.20;99.90
20714;DHT22;10518;50.742;4.226;2023-05-07T01:52:22;15.20;99.90
20714;DHT22;10518;50.742;4.226;2023-05-07T01:54:48;15.10;99.90
20714;DHT22;10518;50.742;4.226;2023-05-07T01:57:13;15.10;99.90
20714;DHT22;10518;50.742;4.226;2023-05-07T01:59:39;15.10;99.90
20714;DHT22;10518;50.742;4.226;2023-05-07T02:02:04;15.10;99.90
20714;DHT22;10518;50.742;4.226;2023-05-07T02:04:30;15.10;99.90
20714;DHT22;10518;50.742;4.226;2023-05-07T02:06:56;15.10;99.90
20714;DHT22;10518;50.742;4.226;2023-05-07T02:09:21;15.10;99.90
20714;DHT22;10518;50.742;4.226;2023-05-07T02:11:48;15.00;99.90
20714;DHT22;10518;50.742;4.226;2023-05-07T02:14:13;15.00;99.90
20714;DHT22;10518;50.742;4.226;2023-05-07T02:16:39;15.00;99.90
20714;DHT22;10518;50.742;4.226;2023-05-07T02:19:05;15.00;99.90
20714;DHT22;10518;50.742;4.226;2023-05-07T02:21:30;15.00;99.90
20714;DHT22;10518;50.742;4.226;2023-05-07T02:23:56;15.00;99.90
20714;DHT22;10518;50.742;4.226;2023-05-07T02:26:22;15.00;99.90
20714;DHT22;10518;50.742;4.226;2023-05-07T02:28:47;15.10;99.90
20714;DHT22;10518;50.742;4.226;2023-05-07T02:31:13;15.10;99.90
20714;DHT22;10518;50.742;4.226;2023-05-07T02:33:38;15.20;99.90
20714;DHT22;10518;50.742;4.226;2023-05-07T02:36:10;15.20;99.90
20714;DHT22;10518;50.742;4.226;2023-05-07T02:38:37;15.20;99.90
20714;DHT22;10518;50.742;4.226;2023-05-07T02:41:03;15.20;99.90
20714;DHT22;10518;50.742;4.226;2023-05-07T02:43:28;15.20;99.90
20714;DHT22;10518;50.742;4.226;2023-05-07T02:46:05;15.20;99.90
20714;DHT22;10518;50.742;4.226;2023-05-07T02:48:31;15.20;99.90
20714;DHT22;10518;50.742;4.226;2023-05-07T02:50:57;15.10;99.90
20714;DHT22;10518;50.742;4.226;2023-05-07T02:53:23;15.10;99.90
20714;DHT22;10518;50.742;4.226;2023-05-07T02:55:54;15.20;99.90
20714;DHT22;10518;50.742;4.226;2023-05-07T02:58:20;15.20;99.90
20714;DHT22;10518;50.742;4.226;2023-05-07T03:00:46;15.20;99.90
20714;DHT22;10518;50.742;4.226;2023-05-07T03:03:11;15.20;99.90
20714;DHT22;10518;50.742;4.226;2023-05-07T03:05:37;15.20;99.90
20714;DHT22;10518;50.742;4.226;2023-05-07T03:08:03;15.30;99.90
20714;DHT22;10518;50.742;4.226;2023-05-07T03:10:29;15.30;99.90
20714;DHT22;10518;50.742;4.226;2023-05-07T03:12:55;15.30;99.90
20714;DHT22;10518;50.742;4.226;2023-05-07T03:15:21;15.40;99.90
20714;DHT22;10518;50.742;4.226;2023-05-07T03:17:47;15.40;99.90
20714;DHT22;10518;50.742;4.226;2023-05-07T03:20:13;15.50;99.90
20714;DHT22;10518;50.742;4.226;2023-05-07T03:22:39;15.50;99.90
20714;DHT22;10518;50.742;4.226;2023-05-07T03:25:06;15.50;99.90
20714;DHT22;10518;50.742;4.226;2023-05-07T03:27:31;15.50;99.90
20714;DHT22;10518;50.742;4.226;2023-05-07T03:29:57;15.50;99.90
20714;DHT22;10518;50.742;4.226;2023-05-07T03:32:22;15.60;99.90
20714;DHT22;10518;50.742;4.226;2023-05-07T03:34:48;15.50;99.90
20714;DHT22;10518;50.742;4.226;2023-05-07T03:37:14;15.50;99.90
20714;DHT22;10518;50.742;4.226;2023-05-07T03:39:39;15.60;99.90
20714;DHT22;10518;50.742;4.226;2023-05-07T03:42:05;15.60;99.90
20714;DHT22;10518;50.742;4.226;2023-05-07T03:44:31;15.60;99.90
20714;DHT22;10518;50.742;4.226;2023-05-07T03:46:56;15.60;99.90
20714;DHT22;10518;50.742;4.226;2023-05-07T03:49:22;15.60;99.90
20714;DHT22;10518;50.742;4.226;2023-05-07T03:51:47;15.60;99.90
20714;DHT22;10518;50.742;4.226;2023-05-07T03:54:13;15.60;99.90
20714;DHT22;10518;50.742;4.226;2023-05-07T03:56:39;15.60;99.90
20714;DHT22;10518;50.742;4.226;2023-05-07T03:59:04;15.60;99.90
20714;DHT22;10518;50.742;4.226;2023-05-07T04:01:30;15.60;99.90
20714;DHT22;10518;50.742;4.226;2023-05-07T04:03:56;15.60;99.90
20714;DHT22;10518;50.742;4.226;2023-05-07T04:06:22;15.60;99.90
20714;DHT22;10518;50.742;4.226;2023-05-07T04:08:48;15.60;99.90
20714;DHT22;10518;50.742;4.226;2023-05-07T04:11:13;15.60;99.90
20714;DHT22;10518;50.742;4.226;2023-05-07T04:13:39;15.60;99.90
20714;DHT22;10518;50.742;4.226;2023-05-07T04:16:05;15.60;99.90
20714;DHT22;10518;50.742;4.226;2023-05-07T04:18:31;15.60;99.90
20714;DHT22;10518;50.742;4.226;2023-05-07T04:20:56;15.60;99.90
20714;DHT22;10518;50.742;4.226;2023-05-07T04:23:22;15.60;99.90
20714;DHT22;10518;50.742;4.226;2023-05-07T04:25:48;15.60;99.90
20714;DHT22;10518;50.742;4.226;2023-05-07T04:28:13;15.60;99.90
20714;DHT22;10518;50.742;4.226;2023-05-07T04:30:39;15.60;99.90
20714;DHT22;10518;50.742;4.226;2023-05-07T04:33:06;15.60;99.90
20714;DHT22;10518;50.742;4.226;2023-05-07T04:35:32;15.60;99.90
20714;DHT22;10518;50.742;4.226;2023-05-07T04:37:58;15.60;99.90
20714;DHT22;10518;50.742;4.226;2023-05-07T04:40:24;15.60;99.90
20714;DHT22;10518;50.742;4.226;2023-05-07T04:42:50;15.60;99.90
20714;DHT22;10518;50.742;4.226;2023-05-07T04:45:15;15.70;99.90
20714;DHT22;10518;50.742;4.226;2023-05-07T04:47:41;15.70;99.90
20714;DHT22;10518;50.742;4.226;2023-05-07T04:50:07;15.70;99.90
20714;DHT22;10518;50.742;4.226;2023-05-07T04:52:33;15.80;99.90
20714;DHT22;10518;50.742;4.226;2023-05-07T04:55:00;15.80;99.90
20714;DHT22;10518;50.742;4.226;2023-05-07T04:57:26;15.80;99.90
20714;DHT22;10518;50.742;4.226;2023-05-07T04:59:52;15.80;99.90
20714;DHT22;10518;50.742;4.226;2023-05-07T05:02:17;15.90;99.90
20714;DHT22;10518;50.742;4.226;2023-05-07T05:04:43;16.00;99.90
20714;DHT22;10518;50.742;4.226;2023-05-07T05:07:09;16.00;99.90
20714;DHT22;10518;50.742;4.226;2023-05-07T05:09:34;16.10;99.90
20714;DHT22;10518;50.742;4.226;2023-05-07T05:12:00;16.20;99.90
20714;DHT22;10518;50.742;4.226;2023-05-07T05:14:26;16.40;99.90
20714;DHT22;10518;50.742;4.226;2023-05-07T05:16:51;16.50;99.90
20714;DHT22;10518;50.742;4.226;2023-05-07T05:19:17;16.50;99.90
20714;DHT22;10518;50.742;4.226;2023-05-07T05:21:42;16.60;99.90
20714;DHT22;10518;50.742;4.226;2023-05-07T05:24:08;16.70;99.90
20714;DHT22;10518;50.742;4.226;2023-05-07T05:26:34;16.70;99.90
20714;DHT22;10518;50.742;4.226;2023-05-07T05:29:00;16.60;99.90
20714;DHT22;10518;50.742;4.226;2023-05-07T05:31:25;16.60;99.90
20714;DHT22;10518;50.742;4.226;2023-05-07T05:33:51;16.90;99.90
20714;DHT22;10518;50.742;4.226;2023-05-07T05:36:16;17.00;99.90
20714;DHT22;10518;50.742;4.226;2023-05-07T05:38:42;16.80;99.90
20714;DHT22;10518;50.742;4.226;2023-05-07T05:41:08;16.70;99.90
20714;DHT22;10518;50.742;4.226;2023-05-07T05:43:33;16.70;99.90
20714;DHT22;10518;50.742;4.226;2023-05-07T05:45:59;16.70;99.90
20714;DHT22;10518;50.742;4.226;2023-05-07T05:48:25;16.70;99.90
20714;DHT22;10518;50.742;4.226;2023-05-07T05:50:51;16.60;99.90
20714;DHT22;10518;50.742;4.226;2023-05-07T05:53:17;16.60;99.90
20714;DHT22;10518;50.742;4.226;2023-05-07T05:55:42;16.60;99.90
20714;DHT22;10518;50.742;4.226;2023-05-07T05:58:09;16.90;99.90
20714;DHT22;10518;50.742;4.226;2023-05-07T06:00:34;16.80;99.90
20714;DHT22;10518;50.742;4.226;2023-05-07T06:03:00;16.70;99.90
20714;DHT22;10518;50.742;4.226;2023-05-07T06:05:26;16.90;99.90
20714;DHT22;10518;50.742;4.226;2023-05-07T06:07:51;17.00;99.90
20714;DHT22;10518;50.742;4.226;2023-05-07T06:10:17;17.00;99.90
20714;DHT22;10518;50.742;4.226;2023-05-07T06:12:43;17.00;99.90
20714;DHT22;10518;50.742;4.226;2023-05-07T06:15:09;17.10;99.90
20714;DHT22;10518;50.742;4.226;2023-05-07T06:17:35;17.20;99.90
20714;DHT22;10518;50.742;4.226;2023-05-07T06:20:00;17.10;99.90
20714;DHT22;10518;50.742;4.226;2023-05-07T06:22:26;17.10;99.90
20714;DHT22;10518;50.742;4.226;2023-05-07T06:24:52;17.00;99.90
20714;DHT22;10518;50.742;4.226;2023-05-07T06:27:17;16.90;99.90
20714;DHT22;10518;50.742;4.226;2023-05-07T06:29:43;16.80;99.90
20714;DHT22;10518;50.742;4.226;2023-05-07T06:32:10;16.60;99.90
20714;DHT22;10518;50.742;4.226;2023-05-07T06:34:36;16.70;99.90
20714;DHT22;10518;50.742;4.226;2023-05-07T06:37:02;16.70;99.90
20714;DHT22;10518;50.742;4.226;2023-05-07T06:39:28;16.90;99.90
20714;DHT22;10518;50.742;4.226;2023-05-07T06:41:53;16.80;99.90
20714;DHT22;10518;50.742;4.226;2023-05-07T06:44:19;16.90;99.90
20714;DHT22;10518;50.742;4.226;2023-05-07T06:46:45;16.90;99.90
20714;DHT22;10518;50.742;4.226;2023-05-07T06:49:12;16.90;99.90
20714;DHT22;10518;50.742;4.226;2023-05-07T06:51:38;16.90;99.90
20714;DHT22;10518;50.742;4.226;2023-05-07T06:54:04;16.90;99.90
20714;DHT22;10518;50.742;4.226;2023-05-07T06:56:30;17.00;99.90
20714;DHT22;10518;50.742;4.226;2023-05-07T06:58:56;17.10;99.90
20714;DHT22;10518;50.742;4.226;2023-05-07T07:01:21;17.00;99.90
20714;DHT22;10518;50.742;4.226;2023-05-07T07:03:47;17.00;99.90
20714;DHT22;10518;50.742;4.226;2023-05-07T07:06:13;17.10;99.90
20714;DHT22;10518;50.742;4.226;2023-05-07T07:08:38;17.10;99.90
20714;DHT22;10518;50.742;4.226;2023-05-07T07:11:05;17.20;99.90
20714;DHT22;10518;50.742;4.226;2023-05-07T07:13:31;17.30;99.90
20714;DHT22;10518;50.742;4.226;2023-05-07T07:15:56;17.20;99.90
20714;DHT22;10518;50.742;4.226;2023-05-07T07:18:22;17.20;99.90
20714;DHT22;10518;50.742;4.226;2023-05-07T07:20:48;17.20;99.90
20714;DHT22;10518;50.742;4.226;2023-05-07T07:23:13;17.30;99.90
20714;DHT22;10518;50.742;4.226;2023-05-07T07:25:39;17.40;99.90
20714;DHT22;10518;50.742;4.226;2023-05-07T07:28:05;17.40;99.90
20714;DHT22;10518;50.742;4.226;2023-05-07T07:30:31;17.40;99.90
20714;DHT22;10518;50.742;4.226;2023-05-07T07:32:57;17.40;99.90
20714;DHT22;10518;50.742;4.226;2023-05-07T07:35:28;17.40;99.90
20714;DHT22;10518;50.742;4.226;2023-05-07T07:37:54;17.50;99.90
20714;DHT22;10518;50.742;4.226;2023-05-07T07:40:19;17.50;99.90
20714;DHT22;10518;50.742;4.226;2023-05-07T07:42:45;17.60;99.90
20714;DHT22;10518;50.742;4.226;2023-05-07T07:45:11;17.60;99.90
20714;DHT22;10518;50.742;4.226;2023-05-07T07:47:37;17.60;99.90
20714;DHT22;10518;50.742;4.226;2023-05-07T07:50:03;17.60;99.90
20714;DHT22;10518;50.742;4.226;2023-05-07T07:52:28;17.60;99.90
20714;DHT22;10518;50.742;4.226;2023-05-07T07:54:54;17.70;99.90
20714;DHT22;10518;50.742;4.226;2023-05-07T07:57:20;17.80;99.90
20714;DHT22;10518;50.742;4.226;2023-05-07T07:59:46;17.80;99.90
20714;DHT22;10518;50.742;4.226;2023-05-07T08:02:11;17.80;99.90
20714;DHT22;10518;50.742;4.226;2023-05-07T08:04:37;17.70;99.90
20714;DHT22;10518;50.742;4.226;2023-05-07T08:07:03;18.00;99.90
20714;DHT22;10518;50.742;4.226;2023-05-07T08:09:29;18.00;99.90
20714;DHT22;10518;50.742;4.226;2023-05-07T08:11:54;18.00;99.90
20714;DHT22;10518;50.742;4.226;2023-05-07T08:14:20;18.00;99.90
20714;DHT22;10518;50.742;4.226;2023-05-07T08:16:45;18.00;99.90
20714;DHT22;10518;50.742;4.226;2023-05-07T08:19:11;18.10;99.90
20714;DHT22;10518;50.742;4.226;2023-05-07T08:21:40;17.90;99.90
20714;DHT22;10518;50.742;4.226;2023-05-07T08:24:06;17.90;99.90
20714;DHT22;10518;50.742;4.226;2023-05-07T08:26:32;17.80;99.90
20714;DHT22;10518;50.742;4.226;2023-05-07T08:28:57;17.80;99.90
20714;DHT22;10518;50.742;4.226;2023-05-07T08:31:23;17.80;99.90
20714;DHT22;10518;50.742;4.226;2023-05-07T08:33:49;17.90;99.90
20714;DHT22;10518;50.742;4.226;2023-05-07T08:36:15;18.00;99.90
20714;DHT22;10518;50.742;4.226;2023-05-07T08:38:41;18.00;99.90
20714;DHT22;10518;50.742;4.226;2023-05-07T08:41:10;18.10;99.90
20714;DHT22;10518;50.742;4.226;2023-05-07T08:43:36;18.10;99.90
20714;DHT22;10518;50.742;4.226;2023-05-07T08:46:04;18.20;99.90
20714;DHT22;10518;50.742;4.226;2023-05-07T08:48:31;18.20;99.90
20714;DHT22;10518;50.742;4.226;2023-05-07T08:50:58;18.30;99.90
20714;DHT22;10518;50.742;4.226;2023-05-07T08:53:24;18.50;99.90
20714;DHT22;10518;50.742;4.226;2023-05-07T08:55:51;18.60;99.90
20714;DHT22;10518;50.742;4.226;2023-05-07T08:58:17;18.80;99.90
20714;DHT22;10518;50.742;4.226;2023-05-07T09:00:43;18.90;99.90
20714;DHT22;10518;50.742;4.226;2023-05-07T09:03:08;18.80;99.90
20714;DHT22;10518;50.742;4.226;2023-05-07T09:05:38;19.00;99.90
20714;DHT22;10518;50.742;4.226;2023-05-07T09:08:04;19.10;99.90
20714;DHT22;10518;50.742;4.226;2023-05-07T09:10:33;19.00;99.90
20714;DHT22;10518;50.742;4.226;2023-05-07T09:12:59;19.00;99.90
20714;DHT22;10518;50.742;4.226;2023-05-07T09:15:26;19.30;99.90
20714;DHT22;10518;50.742;4.226;2023-05-07T09:17:52;19.30;99.90
20714;DHT22;10518;50.742;4.226;2023-05-07T09:20:18;19.40;99.90
20714;DHT22;10518;50.742;4.226;2023-05-07T09:22:43;19.30;99.90
20714;DHT22;10518;50.742;4.226;2023-05-07T09:25:09;19.50;99.90
20714;DHT22;10518;50.742;4.226;2023-05-07T09:27:35;19.70;99.90
20714;DHT22;10518;50.742;4.226;2023-05-07T09:30:07;19.50;99.90
20714;DHT22;10518;50.742;4.226;2023-05-07T09:32:37;19.70;99.90
20714;DHT22;10518;50.742;4.226;2023-05-07T09:35:05;19.40;99.90
20714;DHT22;10518;50.742;4.226;2023-05-07T09:37:31;19.20;99.90
20714;DHT22;10518;50.742;4.226;2023-05-07T09:39:58;19.00;99.90
20714;DHT22;10518;50.742;4.226;2023-05-07T09:42:27;19.00;99.90
20714;DHT22;10518;50.742;4.226;2023-05-07T09:44:52;19.00;99.90
20714;DHT22;10518;50.742;4.226;2023-05-07T09:47:19;19.00;99.90
20714;DHT22;10518;50.742;4.226;2023-05-07T09:49:47;18.90;99.90
20714;DHT22;10518;50.742;4.226;2023-05-07T09:52:14;18.90;99.90
20714;DHT22;10518;50.742;4.226;2023-05-07T09:54:40;19.00;99.90
20714;DHT22;10518;50.742;4.226;2023-05-07T09:57:10;19.20;99.90
20714;DHT22;10518;50.742;4.226;2023-05-07T09:59:37;19.10;99.90
20714;DHT22;10518;50.742;4.226;2023-05-07T10:02:05;19.00;99.90
20714;DHT22;10518;50.742;4.226;2023-05-07T10:04:32;19.10;99.90
20714;DHT22;10518;50.742;4.226;2023-05-07T10:06:58;19.30;99.90
20714;DHT22;10518;50.742;4.226;2023-05-07T10:09:25;19.20;99.90
20714;DHT22;10518;50.742;4.226;2023-05-07T10:11:52;19.20;99.90
20714;DHT22;10518;50.742;4.226;2023-05-07T10:14:20;19.30;99.90
20714;DHT22;10518;50.742;4.226;2023-05-07T10:16:47;19.40;99.90
20714;DHT22;10518;50.742;4.226;2023-05-07T10:19:14;19.50;99.90
20714;DHT22;10518;50.742;4.226;2023-05-07T10:21:55;19.60;99.90
20714;DHT22;10518;50.742;4.226;2023-05-07T10:24:31;19.60;99.90
20714;DHT22;10518;50.742;4.226;2023-05-07T10:26:59;19.70;99.90
20714;DHT22;10518;50.742;4.226;2023-05-07T10:35:29;19.80;99.90
20714;DHT22;10518;50.742;4.226;2023-05-07T10:37:54;20.00;99.90
20714;DHT22;10518;50.742;4.226;2023-05-07T10:40:21;20.10;99.90
20714;DHT22;10518;50.742;4.226;2023-05-07T10:43:00;20.20;99.90
20714;DHT22;10518;50.742;4.226;2023-05-07T10:45:27;20.10;99.90
20714;DHT22;10518;50.742;4.226;2023-05-07T10:48:09;20.20;99.90
20714;DHT22;10518;50.742;4.226;2023-05-07T10:50:42;20.10;99.90
20714;DHT22;10518;50.742;4.226;2023-05-07T10:55:46;20.10;99.90
20714;DHT22;10518;50.742;4.226;2023-05-07T11:00:47;20.00;99.90
20714;DHT22;10518;50.742;4.226;2023-05-07T11:03:14;19.90;99.90
20714;DHT22;10518;50.742;4.226;2023-05-07T11:05:41;19.90;99.90
20714;DHT22;10518;50.742;4.226;2023-05-07T11:08:07;20.00;99.90
20714;DHT22;10518;50.742;4.226;2023-05-07T11:10:53;20.00;99.90
20714;DHT22;10518;50.742;4.226;2023-05-07T11:13:46;20.00;99.90
20714;DHT22;10518;50.742;4.226;2023-05-07T11:16:18;19.90;99.90
20714;DHT22;10518;50.742;4.226;2023-05-07T11:18:53;19.70;99.90
20714;DHT22;10518;50.742;4.226;2023-05-07T11:23:59;20.20;99.90
20714;DHT22;10518;50.742;4.226;2023-05-07T11:26:25;20.30;99.90
20714;DHT22;10518;50.742;4.226;2023-05-07T11:28:52;20.30;99.90
20714;DHT22;10518;50.742;4.226;2023-05-07T11:31:26;20.50;99.90
20714;DHT22;10518;50.742;4.226;2023-05-07T11:33:54;20.80;99.90
20714;DHT22;10518;50.742;4.226;2023-05-07T11:36:21;20.90;99.90
20714;DHT22;10518;50.742;4.226;2023-05-07T11:38:47;21.10;99.90
20714;DHT22;10518;50.742;4.226;2023-05-07T11:41:13;21.30;99.90
20714;DHT22;10518;50.742;4.226;2023-05-07T11:43:53;21.30;99.90
20714;DHT22;10518;50.742;4.226;2023-05-07T11:46:20;21.20;99.90
20714;DHT22;10518;50.742;4.226;2023-05-07T11:48:45;21.40;99.90
20714;DHT22;10518;50.742;4.226;2023-05-07T11:51:11;21.60;99.90
20714;DHT22;10518;50.742;4.226;2023-05-07T11:53:40;21.50;99.90
20714;DHT22;10518;50.742;4.226;2023-05-07T11:56:07;21.80;99.90
20714;DHT22;10518;50.742;4.226;2023-05-07T11:58:33;22.10;99.90
20714;DHT22;10518;50.742;4.226;2023-05-07T12:00:59;22.30;99.90
20714;DHT22;10518;50.742;4.226;2023-05-07T12:03:25;22.00;99.90
20714;DHT22;10518;50.742;4.226;2023-05-07T12:05:50;21.90;99.90
20714;DHT22;10518;50.742;4.226;2023-05-07T12:08:17;22.20;99.90
20714;DHT22;10518;50.742;4.226;2023-05-07T12:10:44;22.30;99.90
20714;DHT22;10518;50.742;4.226;2023-05-07T12:13:20;22.40;99.90
20714;DHT22;10518;50.742;4.226;2023-05-07T12:15:46;22.00;99.90
20714;DHT22;10518;50.742;4.226;2023-05-07T12:18:15;21.50;99.90
20714;DHT22;10518;50.742;4.226;2023-05-07T12:20:41;21.40;99.90
20714;DHT22;10518;50.742;4.226;2023-05-07T12:23:07;21.50;99.90
20714;DHT22;10518;50.742;4.226;2023-05-07T12:25:37;21.80;99.90
20714;DHT22;10518;50.742;4.226;2023-05-07T12:28:03;21.70;99.90
20714;DHT22;10518;50.742;4.226;2023-05-07T12:30:38;21.90;99.90
20714;DHT22;10518;50.742;4.226;2023-05-07T12:33:04;21.90;99.90
20714;DHT22;10518;50.742;4.226;2023-05-07T12:35:32;22.10;99.90
20714;DHT22;10518;50.742;4.226;2023-05-07T12:37:58;22.20;99.90
20714;DHT22;10518;50.742;4.226;2023-05-07T12:40:35;22.10;99.90
20714;DHT22;10518;50.742;4.226;2023-05-07T12:43:01;22.30;99.90
20714;DHT22;10518;50.742;4.226;2023-05-07T12:45:27;22.30;99.90
20714;DHT22;10518;50.742;4.226;2023-05-07T12:47:53;22.30;99.90
20714;DHT22;10518;50.742;4.226;2023-05-07T12:50:18;22.20;99.90
20714;DHT22;10518;50.742;4.226;2023-05-07T12:52:47;22.20;99.90
20714;DHT22;10518;50.742;4.226;2023-05-07T12:55:17;22.40;99.90
20714;DHT22;10518;50.742;4.226;2023-05-07T12:57:50;22.40;99.90
20714;DHT22;10518;50.742;4.226;2023-05-07T13:00:17;22.40;99.90
20714;DHT22;10518;50.742;4.226;2023-05-07T13:02:43;22.40;99.90
20714;DHT22;10518;50.742;4.226;2023-05-07T13:05:10;22.40;99.90
20714;DHT22;10518;50.742;4.226;2023-05-07T13:07:36;22.10;99.90
20714;DHT22;10518;50.742;4.226;2023-05-07T13:10:02;22.10;99.90
20714;DHT22;10518;50.742;4.226;2023-05-07T13:12:28;22.10;99.90
20714;DHT22;10518;50.742;4.226;2023-05-07T13:14:54;22.10;99.90
20714;DHT22;10518;50.742;4.226;2023-05-07T13:17:19;21.90;99.90
20714;DHT22;10518;50.742;4.226;2023-05-07T13:19:45;22.00;99.90
20714;DHT22;10518;50.742;4.226;2023-05-07T13:22:10;22.10;99.90
20714;DHT22;10518;50.742;4.226;2023-05-07T13:24:36;22.10;99.90
20714;DHT22;10518;50.742;4.226;2023-05-07T13:27:02;22.10;99.90
20714;DHT22;10518;50.742;4.226;2023-05-07T13:29:28;22.10;99.90
20714;DHT22;10518;50.742;4.226;2023-05-07T13:31:58;21.80;99.90
20714;DHT22;10518;50.742;4.226;2023-05-07T13:34:25;21.70;99.90
20714;DHT22;10518;50.742;4.226;2023-05-07T13:36:50;21.70;99.90
20714;DHT22;10518;50.742;4.226;2023-05-07T13:39:16;21.70;99.90
20714;DHT22;10518;50.742;4.226;2023-05-07T13:41:42;21.80;99.90
20714;DHT22;10518;50.742;4.226;2023-05-07T13:44:07;21.80;99.90
20714;DHT22;10518;50.742;4.226;2023-05-07T13:46:33;21.70;99.90
20714;DHT22;10518;50.742;4.226;2023-05-07T13:48:59;21.70;99.90
20714;DHT22;10518;50.742;4.226;2023-05-07T13:51:24;21.70;99.90
20714;DHT22;10518;50.742;4.226;2023-05-07T13:53:51;21.90;99.90
20714;DHT22;10518;50.742;4.226;2023-05-07T13:56:17;22.10;99.90
20714;DHT22;10518;50.742;4.226;2023-05-07T13:58:43;22.00;99.90
20714;DHT22;10518;50.742;4.226;2023-05-07T14:01:09;22.10;99.90
20714;DHT22;10518;50.742;4.226;2023-05-07T14:03:34;22.10;99.90
20714;DHT22;10518;50.742;4.226;2023-05-07T14:06:03;21.80;99.90
20714;DHT22;10518;50.742;4.226;2023-05-07T14:08:28;21.80;99.90
20714;DHT22;10518;50.742;4.226;2023-05-07T14:10:54;21.70;99.90
20714;DHT22;10518;50.742;4.226;2023-05-07T14:13:20;21.80;99.90
20714;DHT22;10518;50.742;4.226;2023-05-07T14:15:45;21.70;99.90
20714;DHT22;10518;50.742;4.226;2023-05-07T14:18:15;21.70;99.90
20714;DHT22;10518;50.742;4.226;2023-05-07T14:20:41;21.70;99.90
20714;DHT22;10518;50.742;4.226;2023-05-07T14:23:09;21.60;99.90
20714;DHT22;10518;50.742;4.226;2023-05-07T14:25:35;21.60;99.90
20714;DHT22;10518;50.742;4.226;2023-05-07T14:28:00;21.70;99.90
20714;DHT22;10518;50.742;4.226;2023-05-07T14:30:26;21.50;99.90
20714;DHT22;10518;50.742;4.226;2023-05-07T14:32:52;21.50;99.90
20714;DHT22;10518;50.742;4.226;2023-05-07T14:35:17;21.30;99.90
20714;DHT22;10518;50.742;4.226;2023-05-07T14:37:43;21.20;99.90
20714;DHT22;10518;50.742;4.226;2023-05-07T14:40:09;21.30;99.90
20714;DHT22;10518;50.742;4.226;2023-05-07T14:42:35;21.40;99.90
20714;DHT22;10518;50.742;4.226;2023-05-07T14:45:01;21.30;99.90
20714;DHT22;10518;50.742;4.226;2023-05-07T14:47:26;21.20;99.90
20714;DHT22;10518;50.742;4.226;2023-05-07T14:49:52;21.30;99.90
20714;DHT22;10518;50.742;4.226;2023-05-07T14:52:18;21.40;99.90
20714;DHT22;10518;50.742;4.226;2023-05-07T14:54:44;21.30;99.90
20714;DHT22;10518;50.742;4.226;2023-05-07T14:57:10;21.30;99.90
20714;DHT22;10518;50.742;4.226;2023-05-07T14:59:39;21.50;99.90
20714;DHT22;10518;50.742;4.226;2023-05-07T15:02:05;21.40;99.90
20714;DHT22;10518;50.742;4.226;2023-05-07T15:04:33;21.20;99.90
20714;DHT22;10518;50.742;4.226;2023-05-07T15:06:59;21.40;99.90
20714;DHT22;10518;50.742;4.226;2023-05-07T15:09:25;20.90;99.90
20714;DHT22;10518;50.742;4.226;2023-05-07T15:11:51;20.70;99.90
20714;DHT22;10518;50.742;4.226;2023-05-07T15:14:17;20.60;99.90
20714;DHT22;10518;50.742;4.226;2023-05-07T15:16:42;20.80;99.90
20714;DHT22;10518;50.742;4.226;2023-05-07T15:19:08;20.90;99.90
20714;DHT22;10518;50.742;4.226;2023-05-07T15:21:33;20.70;99.90
20714;DHT22;10518;50.742;4.226;2023-05-07T15:24:01;20.60;99.90
20714;DHT22;10518;50.742;4.226;2023-05-07T15:26:27;20.50;99.90
20714;DHT22;10518;50.742;4.226;2023-05-07T15:28:52;20.50;99.90
20714;DHT22;10518;50.742;4.226;2023-05-07T15:31:18;20.50;99.90
20714;DHT22;10518;50.742;4.226;2023-05-07T15:33:43;20.40;99.90
20714;DHT22;10518;50.742;4.226;2023-05-07T15:36:10;20.60;99.90
20714;DHT22;10518;50.742;4.226;2023-05-07T15:38:36;20.70;99.90
20714;DHT22;10518;50.742;4.226;2023-05-07T15:41:01;20.70;99.90